Time;durP1;ratioP1;P1;durP2;ratioP2;P2;SDS_P1;SDS_P2;PMS_P1;PMS_P2;Temp;Humidity;BMP_temperature;BMP_pressure;BME280_temperature;BME280_humidity;BME280_pressure;Samples;Min_cycle;Max_cycle;Signal;HPM_P1;HPM_P2
2023/04/12 00:02:26;;;;;;;0.13;0.13;;;;;;;7.27;78.08;95048.75;4386985;32;20224;-57
2023/04/12 00:04:54;;;;;;;0.27;0.27;;;;;;;7.55;77.28;95034.72;4390735;32;20216;-55
2023/04/12 00:07:23;;;;;;;0.40;0.40;;;;;;;7.31;77.72;95035.78;4387934;32;20296;-56
2023/04/12 00:09:49;;;;;;;0.40;0.40;;;;;;;7.44;77.46;95030.63;4383836;32;20294;-55
2023/04/12 00:12:18;;;;;;;0.20;0.20;;;;;;;7.31;78.08;95036.56;4374684;32;20331;-57
2023/04/12 00:14:44;;;;;;;0.73;0.73;;;;;;;7.33;77.96;95025.72;4383669;32;20290;-56
2023/04/12 00:17:10;;;;;;;2.97;0.50;;;;;;;7.30;78.12;95026.28;4385009;32;20277;-54
2023/04/12 00:19:35;;;;;;;0.30;0.30;;;;;;;7.41;77.78;95022.50;4387924;32;20364;-56
2023/04/12 00:22:00;;;;;;;0.50;0.50;;;;;;;7.51;77.59;95015.22;4381282;32;20211;-56
2023/04/12 00:24:26;;;;;;;0.20;0.20;;;;;;;7.44;77.34;95004.25;4386252;32;20189;-54
2023/04/12 00:26:51;;;;;;;0.40;0.40;;;;;;;7.64;76.93;95010.38;4382617;32;20200;-56
2023/04/12 00:29:16;;;;;;;1.23;0.73;;;;;;;7.48;77.16;95002.59;4377633;32;20204;-55
2023/04/12 00:31:42;;;;;;;0.10;0.10;;;;;;;7.29;77.94;95003.59;4374778;32;20246;-55
2023/04/12 00:34:07;;;;;;;0.63;0.63;;;;;;;7.57;77.30;95000.91;4389546;32;20253;-54
2023/04/12 00:36:32;;;;;;;0.53;0.53;;;;;;;7.47;77.06;94997.62;4377129;32;20278;-56
2023/04/12 00:38:58;;;;;;;0.27;0.27;;;;;;;7.54;77.25;94985.66;4379199;32;20240;-56
2023/04/12 00:41:25;;;;;;;0.10;0.10;;;;;;;7.49;77.55;94990.97;4383025;32;20195;-54
2023/04/12 00:43:50;;;;;;;0.30;0.30;;;;;;;7.54;77.01;94985.66;4382308;32;20185;-56
2023/04/12 00:46:18;;;;;;;0.57;0.40;;;;;;;7.56;76.94;95004.62;4372443;32;20359;-55
2023/04/12 00:48:46;;;;;;;1.07;0.97;;;;;;;7.56;77.06;94983.50;4367217;32;20189;-54
2023/04/12 00:51:12;;;;;;;0.03;0.03;;;;;;;7.29;77.87;94988.56;4376636;32;20296;-55
2023/04/12 00:53:39;;;;;;;0.10;0.10;;;;;;;7.65;76.97;94980.25;4379688;32;20284;-57
2023/04/12 00:56:06;;;;;;;0.20;0.20;;;;;;;7.40;77.78;94976.84;4384497;32;20181;-56
2023/04/12 00:58:31;;;;;;;0.40;0.40;;;;;;;7.54;77.09;94975.09;4376759;32;20321;-56
2023/04/12 01:00:57;;;;;;;0.20;0.20;;;;;;;7.49;77.33;94975.12;4381415;32;20292;-56
2023/04/12 01:03:23;;;;;;;0.13;0.13;;;;;;;7.40;77.74;94973.41;4388851;32;20208;-56
2023/04/12 01:06:28;;;;;;;0.40;0.40;;;;;;;7.68;76.51;94966.50;4378448;32;20264;-56
2023/04/12 01:09:21;;;;;;;0.27;0.27;;;;;;;7.55;76.81;94960.81;4362376;32;20284;-56
2023/04/12 01:11:50;;;;;;;0.10;0.10;;;;;;;7.72;76.11;94960.34;4383646;32;20288;-53
2023/04/12 01:14:30;;;;;;;0.60;0.60;;;;;;;7.72;75.74;94956.91;4383757;32;20280;-56
2023/04/12 01:17:03;;;;;;;0.20;0.20;;;;;;;7.58;76.33;94954.97;4388795;32;20288;-54
2023/04/12 01:19:34;;;;;;;0.30;0.30;;;;;;;7.74;75.61;94952.12;4380111;32;20276;-57
2023/04/12 01:22:29;;;;;;;0.57;0.57;;;;;;;7.64;76.13;94955.72;4387608;32;20335;-56
2023/04/12 01:25:02;;;;;;;0.10;0.10;;;;;;;7.59;76.25;94948.63;4371602;32;20280;-57
2023/04/12 01:27:43;;;;;;;0.27;0.27;;;;;;;7.73;76.29;94945.28;4378505;32;20276;-54
2023/04/12 01:30:12;;;;;;;0.17;0.17;;;;;;;7.98;74.86;94952.09;4383311;32;20352;-53
2023/04/12 01:32:41;;;;;;;0.40;0.40;;;;;;;7.79;75.28;94947.59;4376183;32;20280;-55
2023/04/12 01:35:07;;;;;;;0.10;0.10;;;;;;;7.78;75.79;94951.28;4372888;32;20292;-54
2023/04/12 01:37:34;;;;;;;1.13;0.67;;;;;;;7.94;74.67;94951.88;4386934;32;20382;-54
2023/04/12 01:40:00;;;;;;;0.33;0.33;;;;;;;7.82;74.99;94938.31;4374994;32;20285;-55
2023/04/12 01:42:25;;;;;;;0.20;0.20;;;;;;;7.65;76.09;94935.38;4387644;32;20322;-54
2023/04/12 01:44:50;;;;;;;0.60;0.60;;;;;;;7.57;76.61;94937.56;4387041;32;20208;-56
2023/04/12 01:47:16;;;;;;;0.63;0.30;;;;;;;7.76;76.27;94940.22;4368561;32;20189;-54
2023/04/12 01:49:54;;;;;;;0.33;0.33;;;;;;;7.65;77.07;94944.09;4381288;32;20226;-53
2023/04/12 01:52:25;;;;;;;0.53;0.53;;;;;;;7.64;77.12;94952.28;4385428;32;20180;-52
2023/04/12 01:54:56;;;;;;;0.50;0.30;;;;;;;7.59;77.46;94940.72;4374200;32;20281;-55
2023/04/12 01:57:22;;;;;;;0.30;0.30;;;;;;;7.79;77.45;94944.94;4384226;32;20292;-56
2023/04/12 01:59:50;;;;;;;0.10;0.10;;;;;;;7.58;78.44;94941.78;4388744;32;20349;-56
2023/04/12 02:02:16;;;;;;;0.73;0.50;;;;;;;7.69;78.77;94936.38;4380481;32;20284;-56
2023/04/12 02:04:42;;;;;;;0.10;0.10;;;;;;;7.57;80.01;94940.22;4384682;32;20293;-54
2023/04/12 02:07:08;;;;;;;0.30;0.30;;;;;;;7.57;80.14;94936.78;4380969;32;20272;-56
2023/04/12 02:09:37;;;;;;;1.03;0.40;;;;;;;7.70;79.91;94940.56;4373827;32;20184;-55
2023/04/12 02:12:03;;;;;;;0.57;0.33;;;;;;;7.73;80.55;94940.00;4388086;32;20268;-55
2023/04/12 02:14:30;;;;;;;0.30;0.30;;;;;;;7.74;80.45;94931.03;4380528;32;20294;-54
2023/04/12 02:16:56;;;;;;;0.30;0.30;;;;;;;7.71;79.83;94937.66;4371102;32;20227;-55
2023/04/12 02:19:22;;;;;;;4.60;0.40;;;;;;;7.63;80.96;94937.50;4366792;32;20291;-55
2023/04/12 02:21:47;;;;;;;4.13;0.40;;;;;;;7.52;82.48;94939.47;4370681;32;20378;-56
2023/04/12 02:24:13;;;;;;;0.20;0.20;;;;;;;7.71;81.53;94929.72;4375307;32;20199;-55
2023/04/12 02:26:39;;;;;;;0.30;0.30;;;;;;;7.58;81.57;94928.59;4392824;32;20184;-53
2023/04/12 02:29:07;;;;;;;0.00;0.00;;;;;;;7.36;82.61;94928.34;4387400;32;20307;-55
2023/04/12 02:31:37;;;;;;;0.67;0.57;;;;;;;7.22;83.94;94938.00;4381063;32;20287;-56
2023/04/12 02:34:03;;;;;;;0.20;0.20;;;;;;;7.32;84.10;94927.31;4384985;32;20374;-55
2023/04/12 02:36:28;;;;;;;0.10;0.10;;;;;;;7.30;84.38;94926.81;4390286;32;20306;-56
2023/04/12 02:38:55;;;;;;;0.10;0.10;;;;;;;7.32;84.63;94929.19;4390336;32;20222;-56
2023/04/12 02:41:20;;;;;;;0.30;0.30;;;;;;;7.38;84.93;94931.47;4386017;32;20192;-56
2023/04/12 02:43:46;;;;;;;0.07;0.07;;;;;;;7.66;84.23;94929.81;4371935;32;20301;-56
2023/04/12 02:46:21;;;;;;;0.30;0.30;;;;;;;7.59;84.83;94927.53;4388973;32;20188;-54
2023/04/12 02:48:47;;;;;;;0.47;0.47;;;;;;;7.49;85.66;94932.13;4382918;32;20180;-56
2023/04/12 02:51:13;;;;;;;0.43;0.43;;;;;;;7.47;86.02;94935.06;4373920;32;20331;-55
2023/04/12 02:53:38;;;;;;;0.33;0.33;;;;;;;7.26;86.99;94936.38;4370759;32;20180;-54
2023/04/12 02:56:04;;;;;;;0.53;0.53;;;;;;;7.35;87.39;94932.03;4378273;32;20240;-56
2023/04/12 02:58:30;;;;;;;0.47;0.47;;;;;;;7.41;86.90;94938.06;4388601;32;20200;-54
2023/04/12 03:00:56;;;;;;;0.73;0.73;;;;;;;7.26;88.00;94930.31;4393388;32;20342;-56
2023/04/12 03:03:21;;;;;;;0.40;0.40;;;;;;;7.33;87.99;94923.63;4388724;32;20185;-52
2023/04/12 03:05:47;;;;;;;0.87;0.87;;;;;;;7.31;88.60;94920.47;4385814;32;20280;-52
2023/04/12 03:08:13;;;;;;;1.73;0.70;;;;;;;7.31;89.00;94917.03;4392032;32;20188;-54
2023/04/12 03:10:38;;;;;;;0.40;0.40;;;;;;;7.12;89.51;94919.66;4390934;32;20192;-55
2023/04/12 03:13:04;;;;;;;0.43;0.43;;;;;;;7.16;90.22;94910.91;4374683;32;20229;-55
2023/04/12 03:15:29;;;;;;;0.50;0.50;;;;;;;7.23;90.46;94911.34;4387282;32;20189;-55
2023/04/12 03:17:55;;;;;;;0.33;0.33;;;;;;;7.14;90.43;94907.75;4375685;32;20261;-57
2023/04/12 03:20:23;;;;;;;0.20;0.20;;;;;;;7.18;90.59;94907.97;4388776;32;20202;-56
2023/04/12 03:22:48;;;;;;;0.20;0.20;;;;;;;7.22;90.56;94907.13;4369628;32;20238;-56
2023/04/12 03:25:14;;;;;;;0.10;0.10;;;;;;;7.44;89.68;94906.59;4388743;32;20291;-55
2023/04/12 03:27:39;;;;;;;0.17;0.17;;;;;;;7.35;89.84;94897.75;4391402;32;20194;-56
2023/04/12 03:30:05;;;;;;;1.23;0.63;;;;;;;7.43;89.74;94893.69;4366340;32;20180;-56
2023/04/12 03:32:31;;;;;;;0.33;0.33;;;;;;;7.45;90.15;94887.06;4388347;32;20172;-54
2023/04/12 03:34:56;;;;;;;0.40;0.40;;;;;;;7.42;89.88;94881.56;4389986;32;20279;-55
2023/04/12 03:37:22;;;;;;;0.10;0.10;;;;;;;7.58;89.55;94875.81;4378877;32;20203;-55
2023/04/12 03:39:47;;;;;;;0.23;0.23;;;;;;;7.31;90.28;94880.91;4389257;32;20196;-54
2023/04/12 03:42:13;;;;;;;0.20;0.20;;;;;;;7.52;89.93;94876.16;4385066;32;20233;-56
2023/04/12 03:44:40;;;;;;;0.50;0.50;;;;;;;7.55;89.63;94886.91;4377169;32;20181;-55
2023/04/12 03:47:05;;;;;;;0.03;0.03;;;;;;;7.41;90.53;94883.41;4389812;32;20264;-56
2023/04/12 03:49:31;;;;;;;0.20;0.20;;;;;;;7.40;91.36;94879.22;4372706;32;20385;-55
2023/04/12 03:51:57;;;;;;;0.17;0.17;;;;;;;7.26;91.00;94883.62;4389434;32;20215;-56
2023/04/12 03:54:23;;;;;;;0.13;0.13;;;;;;;7.11;91.83;94881.16;4374553;32;20280;-54
2023/04/12 03:56:48;;;;;;;0.00;0.00;;;;;;;7.29;91.42;94871.69;4385803;32;20188;-56
2023/04/12 03:59:13;;;;;;;0.27;0.27;;;;;;;6.96;92.58;94879.47;4389511;32;20184;-53
2023/04/12 04:01:40;;;;;;;0.37;0.10;;;;;;;7.35;92.03;94873.22;4378189;32;20180;-54
2023/04/12 04:04:06;;;;;;;0.33;0.33;;;;;;;7.30;91.97;94868.78;4385644;32;20185;-53
2023/04/12 04:06:33;;;;;;;0.10;0.10;;;;;;;7.13;92.24;94863.97;4389676;32;20369;-56
2023/04/12 04:08:58;;;;;;;0.20;0.20;;;;;;;7.14;92.71;94855.00;4388701;32;20203;-57
2023/04/12 04:11:24;;;;;;;0.20;0.20;;;;;;;7.13;92.68;94848.16;4389273;32;20294;-55
2023/04/12 04:13:50;;;;;;;0.43;0.43;;;;;;;7.15;93.03;94851.28;4389133;32;20192;-52
2023/04/12 04:16:16;;;;;;;0.23;0.23;;;;;;;7.20;93.35;94848.59;4380572;32;20247;-56
2023/04/12 04:18:42;;;;;;;0.13;0.13;;;;;;;7.36;92.27;94843.91;4390147;32;20306;-54
2023/04/12 04:21:07;;;;;;;0.30;0.30;;;;;;;7.18;92.66;94834.91;4388353;32;20276;-55
2023/04/12 04:23:43;;;;;;;0.23;0.23;;;;;;;7.25;93.21;94829.28;4369089;32;20294;-53
2023/04/12 04:26:09;;;;;;;0.10;0.10;;;;;;;7.10;93.46;94832.87;4387750;32;20180;-57
2023/04/12 04:28:37;;;;;;;0.20;0.20;;;;;;;7.11;93.40;94828.41;4388974;32;20288;-55
2023/04/12 04:31:05;;;;;;;0.47;0.47;;;;;;;6.99;94.05;94835.94;4374771;32;20284;-57
2023/04/12 04:33:32;;;;;;;0.07;0.07;;;;;;;7.05;93.89;94829.56;4375129;32;20277;-56
2023/04/12 04:35:57;;;;;;;0.30;0.30;;;;;;;7.22;93.50;94828.00;4387311;32;20322;-55
2023/04/12 04:38:25;;;;;;;0.10;0.10;;;;;;;7.29;93.10;94835.53;4377837;32;20281;-53
2023/04/12 04:40:54;;;;;;;0.00;0.00;;;;;;;7.16;93.13;94831.75;4390181;32;20198;-56
2023/04/12 04:43:20;;;;;;;3.03;0.47;;;;;;;7.15;93.56;94834.69;4376843;32;20286;-56
2023/04/12 04:45:49;;;;;;;2.83;0.53;;;;;;;7.10;93.88;94832.09;4391544;32;20323;-55
2023/04/12 04:48:15;;;;;;;0.10;0.10;;;;;;;7.16;93.59;94833.63;4380532;32;20287;-52
2023/04/12 04:50:40;;;;;;;3.80;0.97;;;;;;;7.12;93.61;94827.34;4389613;32;20294;-56
2023/04/12 04:53:06;;;;;;;0.30;0.30;;;;;;;7.02;93.81;94830.12;4392137;32;20188;-56
2023/04/12 04:55:31;;;;;;;0.30;0.23;;;;;;;7.10;94.22;94826.84;4373890;32;20194;-52
2023/04/12 04:57:56;;;;;;;0.40;0.40;;;;;;;6.86;94.48;94827.63;4389099;32;20192;-54
2023/04/12 05:00:24;;;;;;;0.20;0.20;;;;;;;7.02;94.22;94820.34;4388458;32;20192;-56
2023/04/12 05:02:50;;;;;;;0.80;0.80;;;;;;;7.09;94.34;94822.62;4391541;32;20203;-55
2023/04/12 05:05:15;;;;;;;0.30;0.30;;;;;;;7.13;94.18;94802.53;4386006;32;20326;-55
2023/04/12 05:07:42;;;;;;;0.00;0.00;;;;;;;7.21;93.65;94807.19;4379753;32;20188;-55
2023/04/12 05:10:08;;;;;;;0.83;0.43;;;;;;;7.07;93.81;94806.28;4375389;32;20184;-53
2023/04/12 05:12:34;;;;;;;0.40;0.40;;;;;;;7.05;94.31;94803.97;4389263;32;20280;-53
2023/04/12 05:15:00;;;;;;;1.30;0.57;;;;;;;7.09;94.10;94801.53;4371737;32;20335;-57
2023/04/12 05:17:26;;;;;;;0.07;0.07;;;;;;;7.06;94.25;94796.84;4372115;32;20314;-55
2023/04/12 05:19:51;;;;;;;0.37;0.33;;;;;;;7.14;93.96;94791.69;4391327;32;20292;-55
2023/04/12 05:22:19;;;;;;;5.33;0.47;;;;;;;7.23;92.93;94794.50;4391776;32;20225;-55
2023/04/12 05:24:45;;;;;;;0.30;0.30;;;;;;;7.04;93.88;94785.78;4387441;32;20177;-53
2023/04/12 05:27:10;;;;;;;0.10;0.10;;;;;;;6.80;94.96;94780.56;4390304;32;20280;-54
2023/04/12 05:29:36;;;;;;;0.10;0.10;;;;;;;6.90;95.21;94780.41;4372081;32;20227;-56
2023/04/12 05:32:01;;;;;;;0.43;0.43;;;;;;;6.95;95.40;94777.72;4385468;32;20173;-55
2023/04/12 05:34:26;;;;;;;0.83;0.83;;;;;;;6.83;95.58;94770.22;4389054;32;20267;-56
2023/04/12 05:36:52;;;;;;;0.33;0.33;;;;;;;7.06;95.33;94765.19;4382366;32;20184;-57
2023/04/12 05:39:17;;;;;;;0.23;0.23;;;;;;;7.23;94.27;94763.63;4387640;32;20243;-55
2023/04/12 05:41:42;;;;;;;1.03;0.70;;;;;;;7.16;94.01;94751.84;4379762;32;20215;-52
2023/04/12 05:44:08;;;;;;;0.47;0.47;;;;;;;7.15;93.72;94756.34;4377834;32;20249;-53
2023/04/12 05:46:33;;;;;;;0.80;0.80;;;;;;;7.30;93.17;94757.97;4387136;32;20192;-54
2023/04/12 05:48:58;;;;;;;0.37;0.37;;;;;;;7.36;92.67;94754.19;4385571;32;20215;-55
2023/04/12 05:51:24;;;;;;;0.50;0.50;;;;;;;7.22;93.12;94748.87;4369250;32;20203;-56
2023/04/12 05:53:50;;;;;;;1.13;0.80;;;;;;;7.19;93.80;94733.59;4364032;32;20192;-56
2023/04/12 05:56:15;;;;;;;0.37;0.37;;;;;;;7.40;92.87;94735.94;4388328;32;20388;-56
2023/04/12 05:58:41;;;;;;;1.30;0.40;;;;;;;7.31;93.73;94732.38;4390257;32;20230;-56
2023/04/12 06:01:06;;;;;;;0.47;0.47;;;;;;;7.43;93.10;94736.16;4390423;32;20188;-53
2023/04/12 06:03:32;;;;;;;0.90;0.47;;;;;;;7.70;91.94;94726.75;4375640;32;20199;-55
2023/04/12 06:05:57;;;;;;;3.03;0.60;;;;;;;7.58;92.08;94725.34;4390417;32;20200;-53
2023/04/12 06:08:22;;;;;;;0.20;0.20;;;;;;;7.30;92.93;94726.31;4384926;32;20192;-55
2023/04/12 06:10:48;;;;;;;0.77;0.77;;;;;;;7.35;93.19;94723.59;4389611;32;20184;-59
2023/04/12 06:13:13;;;;;;;0.27;0.27;;;;;;;7.38;92.89;94716.97;4378681;32;20345;-57
2023/04/12 06:15:39;;;;;;;0.37;0.37;;;;;;;7.30;93.22;94715.75;4386198;32;20184;-56
2023/04/12 06:18:06;;;;;;;0.67;0.47;;;;;;;7.12;94.17;94713.94;4391439;32;20184;-59
2023/04/12 06:20:31;;;;;;;0.30;0.30;;;;;;;7.15;93.73;94710.72;4394653;32;20252;-58
2023/04/12 06:22:57;;;;;;;0.30;0.30;;;;;;;7.20;94.25;94716.72;4387830;32;20345;-58
2023/04/12 06:25:23;;;;;;;0.17;0.17;;;;;;;7.19;93.94;94714.38;4381397;32;20189;-59
2023/04/12 06:27:48;;;;;;;0.17;0.17;;;;;;;7.37;93.15;94715.41;4373963;32;20184;-59
2023/04/12 06:30:13;;;;;;;0.77;0.77;;;;;;;7.33;93.39;94709.91;4389923;32;20192;-59
2023/04/12 06:32:39;;;;;;;0.30;0.30;;;;;;;7.32;93.75;94705.72;4389865;32;20197;-59
2023/04/12 06:35:04;;;;;;;0.30;0.30;;;;;;;7.34;93.34;94705.44;4386098;32;20184;-58
2023/04/12 06:37:30;;;;;;;0.40;0.40;;;;;;;7.38;93.24;94701.16;4386649;32;20215;-58
2023/04/12 06:39:55;;;;;;;0.43;0.43;;;;;;;7.30;93.81;94693.88;4375177;32;20231;-58
2023/04/12 06:42:21;;;;;;;0.30;0.30;;;;;;;7.11;93.91;94696.53;4391473;32;20235;-59
2023/04/12 06:44:46;;;;;;;0.30;0.30;;;;;;;7.06;94.94;94694.00;4389319;32;20177;-58
2023/04/12 06:47:11;;;;;;;0.20;0.20;;;;;;;7.05;95.13;94687.94;4388436;32;20188;-58
2023/04/12 06:49:37;;;;;;;0.47;0.40;;;;;;;6.95;95.48;94685.44;4388752;32;20176;-59
2023/04/12 06:52:02;;;;;;;0.70;0.70;;;;;;;7.05;96.33;94677.38;4384286;32;20207;-58
2023/04/12 06:54:28;;;;;;;0.40;0.40;;;;;;;7.16;96.39;94672.72;4387657;32;20196;-58
2023/04/12 06:56:53;;;;;;;0.23;0.23;;;;;;;7.01;95.59;94668.47;4383899;32;20192;-59
2023/04/12 06:59:18;;;;;;;1.30;0.50;;;;;;;7.17;95.07;94669.81;4370756;32;20188;-58
2023/04/12 07:01:44;;;;;;;0.70;0.70;;;;;;;7.27;95.56;94668.09;4383165;32;20210;-59
2023/04/12 07:04:10;;;;;;;0.33;0.33;;;;;;;7.36;95.59;94669.00;4391729;32;20192;-58
2023/04/12 07:06:35;;;;;;;3.80;1.13;;;;;;;7.17;96.35;94658.47;4387740;32;20192;-58
2023/04/12 07:09:01;;;;;;;0.63;0.63;;;;;;;7.30;96.02;94663.00;4385476;32;20326;-59
2023/04/12 07:11:27;;;;;;;0.20;0.20;;;;;;;7.37;95.81;94668.69;4387669;32;20259;-58
2023/04/12 07:13:52;;;;;;;0.30;0.30;;;;;;;7.28;95.71;94659.88;4374880;32;20192;-58
2023/04/12 07:16:17;;;;;;;0.33;0.33;;;;;;;7.38;95.62;94670.28;4387006;32;20335;-59
2023/04/12 07:18:43;;;;;;;0.43;0.43;;;;;;;7.62;94.56;94658.78;4389662;32;20207;-59
2023/04/12 07:21:08;;;;;;;0.10;0.10;;;;;;;7.22;95.67;94659.19;4382431;32;20244;-58
2023/04/12 07:23:34;;;;;;;0.33;0.33;;;;;;;7.21;95.81;94660.25;4389154;32;20308;-59
2023/04/12 07:26:00;;;;;;;0.23;0.23;;;;;;;7.26;96.62;94661.25;4372040;32;20196;-58
2023/04/12 07:28:26;;;;;;;0.37;0.37;;;;;;;7.45;96.33;94654.84;4375311;32;20242;-58
2023/04/12 07:30:52;;;;;;;0.87;0.77;;;;;;;7.37;96.37;94665.28;4389324;32;20297;-58
2023/04/12 07:33:17;;;;;;;0.30;0.30;;;;;;;7.35;96.27;94660.28;4375563;32;20273;-58
2023/04/12 07:35:42;;;;;;;0.77;0.77;;;;;;;7.23;96.73;94657.34;4377152;32;20193;-58
2023/04/12 07:38:08;;;;;;;0.40;0.40;;;;;;;7.48;97.40;94648.97;4373312;32;20183;-58
2023/04/12 07:40:33;;;;;;;1.70;0.90;;;;;;;7.54;97.71;94647.03;4385689;32;20267;-58
2023/04/12 07:42:58;;;;;;;0.27;0.27;;;;;;;7.61;98.45;94639.53;4381557;32;20219;-58
2023/04/12 07:45:24;;;;;;;0.53;0.53;;;;;;;7.99;97.66;94629.59;4388676;32;20206;-58
2023/04/12 07:47:49;;;;;;;1.30;0.50;;;;;;;8.19;96.26;94631.84;4382970;32;20180;-58
2023/04/12 07:50:15;;;;;;;0.50;0.50;;;;;;;8.37;95.05;94626.75;4360113;32;20216;-58
2023/04/12 07:52:40;;;;;;;0.67;0.40;;;;;;;8.51;94.25;94623.03;4369649;32;20192;-58
2023/04/12 07:55:06;;;;;;;1.50;0.50;;;;;;;8.41;92.83;94619.81;4389444;32;20307;-58
2023/04/12 07:57:32;;;;;;;0.17;0.17;;;;;;;7.91;95.56;94627.63;4391492;32;20197;-58
2023/04/12 07:59:57;;;;;;;0.53;0.53;;;;;;;7.97;96.04;94621.19;4381192;32;20189;-58
2023/04/12 08:02:25;;;;;;;1.90;0.77;;;;;;;8.26;95.40;94611.09;4379198;32;20180;-58
2023/04/12 08:04:54;;;;;;;0.30;0.30;;;;;;;8.37;95.22;94603.75;4385600;32;20185;-58
2023/04/12 08:07:23;;;;;;;0.20;0.20;;;;;;;8.42;95.62;94608.16;4388772;32;20318;-58
2023/04/12 08:09:49;;;;;;;0.93;0.77;;;;;;;8.66;94.51;94602.63;4367172;32;20402;-58
2023/04/12 08:12:14;;;;;;;1.90;0.87;;;;;;;8.95;93.50;94601.12;4374057;32;20372;-57
2023/04/12 08:14:40;;;;;;;0.10;0.10;;;;;;;8.81;94.01;94600.41;4383858;32;20203;-58
2023/04/12 08:17:05;;;;;;;1.03;1.03;;;;;;;9.09;93.35;94601.09;4385309;32;20278;-58
2023/04/12 08:19:31;;;;;;;0.33;0.33;;;;;;;9.23;92.07;94601.78;4389756;32;20184;-58
2023/04/12 08:21:56;;;;;;;0.50;0.50;;;;;;;9.05;92.29;94588.75;4384817;32;20201;-58
2023/04/12 08:24:22;;;;;;;0.40;0.40;;;;;;;8.86;93.11;94595.00;4386191;32;20262;-58
2023/04/12 08:26:47;;;;;;;0.70;0.70;;;;;;;8.92;93.78;94591.16;4372370;32;20206;-58
2023/04/12 08:29:12;;;;;;;0.20;0.20;;;;;;;8.98;93.90;94589.16;4375461;32;20188;-58
2023/04/12 08:31:38;;;;;;;0.40;0.40;;;;;;;8.98;93.40;94583.88;4386869;32;20188;-58
2023/04/12 08:34:04;;;;;;;0.47;0.40;;;;;;;9.14;93.48;94579.81;4374222;32;20272;-58
2023/04/12 08:36:29;;;;;;;0.13;0.13;;;;;;;9.33;93.31;94568.22;4389664;32;20206;-58
2023/04/12 08:38:59;;;;;;;0.40;0.40;;;;;;;9.40;92.65;94561.41;4392348;32;20206;-58
2023/04/12 08:41:24;;;;;;;0.67;0.67;;;;;;;9.33;93.20;94561.06;4389089;32;20195;-58
2023/04/12 08:43:50;;;;;;;2.50;1.10;;;;;;;9.04;94.48;94555.44;4392032;32;20312;-57
2023/04/12 08:46:16;;;;;;;0.47;0.47;;;;;;;8.83;95.98;94553.28;4369926;32;20189;-58
2023/04/12 08:48:46;;;;;;;0.20;0.20;;;;;;;8.93;96.52;94545.13;4376562;32;20184;-58
2023/04/12 08:51:14;;;;;;;1.37;0.73;;;;;;;9.07;96.04;94533.69;4384454;32;20252;-57
2023/04/12 08:53:40;;;;;;;2.10;0.63;;;;;;;9.32;94.63;94524.31;4376279;32;20336;-58
2023/04/12 08:56:09;;;;;;;0.67;0.67;;;;;;;9.39;94.29;94522.78;4388138;32;20184;-58
2023/04/12 08:58:36;;;;;;;0.23;0.23;;;;;;;9.42;93.81;94508.94;4392995;32;20325;-58
2023/04/12 09:01:02;;;;;;;0.20;0.20;;;;;;;9.33;94.73;94505.50;4391899;32;20279;-58
2023/04/12 09:03:28;;;;;;;0.30;0.30;;;;;;;9.30;95.25;94508.75;4389765;32;20284;-58
2023/04/12 09:05:54;;;;;;;0.37;0.37;;;;;;;9.40;95.15;94497.87;4388268;32;20219;-58
2023/04/12 09:08:19;;;;;;;0.47;0.47;;;;;;;9.43;95.49;94496.47;4386006;32;20177;-58
2023/04/12 09:10:45;;;;;;;0.40;0.40;;;;;;;9.41;96.09;94496.78;4389547;32;20199;-59
2023/04/12 09:13:10;;;;;;;2.67;1.13;;;;;;;9.53;95.97;94491.72;4387167;32;20196;-57
2023/04/12 09:15:35;;;;;;;0.30;0.30;;;;;;;9.63;95.09;94491.41;4377385;32;20189;-58
2023/04/12 09:18:07;;;;;;;0.30;0.30;;;;;;;9.82;94.38;94485.84;4391384;32;20229;-58
2023/04/12 09:20:33;;;;;;;1.47;0.57;;;;;;;9.93;93.46;94487.12;4375693;32;20255;-58
2023/04/12 09:22:59;;;;;;;0.30;0.30;;;;;;;10.26;92.65;94492.78;4389185;32;20238;-58
2023/04/12 09:25:36;;;;;;;0.30;0.30;;;;;;;10.32;91.90;94488.13;4377047;32;20185;-58
2023/04/12 09:28:03;;;;;;;0.53;0.40;;;;;;;10.52;91.49;94489.38;4386547;32;20184;-58
2023/04/12 09:30:28;;;;;;;0.80;0.80;;;;;;;10.56;92.13;94485.00;4391367;32;20211;-57
2023/04/12 09:32:54;;;;;;;0.40;0.40;;;;;;;10.49;92.11;94482.81;4385343;32;20192;-58
2023/04/12 09:35:32;;;;;;;0.30;0.30;;;;;;;10.43;92.47;94476.09;4380864;32;20185;-58
2023/04/12 09:38:06;;;;;;;1.27;0.70;;;;;;;10.53;91.52;94473.16;4387625;32;20227;-58
2023/04/12 09:40:35;;;;;;;0.20;0.20;;;;;;;10.47;91.04;94470.97;4386500;32;20200;-57
2023/04/12 09:43:01;;;;;;;0.80;0.80;;;;;;;10.49;91.72;94463.47;4375069;32;20185;-58
2023/04/12 09:45:27;;;;;;;0.40;0.40;;;;;;;10.76;91.16;94460.50;4388379;32;20227;-58
2023/04/12 09:47:53;;;;;;;0.37;0.30;;;;;;;10.64;91.19;94452.37;4386028;32;20188;-58
2023/04/12 09:50:21;;;;;;;0.13;0.13;;;;;;;10.68;91.54;94443.47;4390074;32;20205;-58
2023/04/12 09:52:47;;;;;;;0.73;0.73;;;;;;;10.57;90.52;94446.78;4388063;32;20233;-57
2023/04/12 09:55:13;;;;;;;0.50;0.50;;;;;;;10.62;90.74;94426.16;4389582;32;20207;-58
2023/04/12 09:57:42;;;;;;;0.40;0.40;;;;;;;10.74;91.45;94422.88;4374588;32;20237;-57
2023/04/12 10:00:16;;;;;;;0.30;0.30;;;;;;;10.84;90.40;94419.88;4385811;32;20188;-58
2023/04/12 10:02:43;;;;;;;0.40;0.40;;;;;;;10.75;90.55;94413.81;4370803;32;20252;-58
2023/04/12 10:05:12;;;;;;;0.43;0.43;;;;;;;10.98;89.99;94409.06;4390305;32;20203;-58
2023/04/12 10:07:40;;;;;;;0.33;0.33;;;;;;;10.83;90.70;94406.91;4389711;32;20188;-58
2023/04/12 10:10:07;;;;;;;0.20;0.20;;;;;;;11.00;88.90;94402.38;4376302;32;20204;-57
2023/04/12 10:12:35;;;;;;;0.40;0.40;;;;;;;11.03;88.45;94411.53;4386322;32;20201;-58
2023/04/12 10:15:05;;;;;;;0.27;0.27;;;;;;;10.94;88.64;94403.62;4371375;32;20188;-58
2023/04/12 10:17:33;;;;;;;0.30;0.23;;;;;;;11.19;87.90;94409.16;4388304;32;20220;-58
2023/04/12 10:19:59;;;;;;;0.30;0.30;;;;;;;11.31;88.30;94390.66;4370969;32;20231;-58
2023/04/12 10:22:25;;;;;;;0.30;0.30;;;;;;;11.34;88.80;94390.03;4388167;32;20193;-58
2023/04/12 10:24:51;;;;;;;0.17;0.17;;;;;;;11.51;87.16;94376.63;4375724;32;20192;-57
2023/04/12 10:27:25;;;;;;;0.10;0.10;;;;;;;11.59;86.71;94381.13;4372667;32;20247;-58
2023/04/12 10:29:50;;;;;;;0.10;0.10;;;;;;;11.69;86.70;94380.75;4376057;32;20275;-58
2023/04/12 10:32:23;;;;;;;0.43;0.43;;;;;;;11.78;86.47;94377.28;4386509;32;20215;-58
2023/04/12 10:34:57;;;;;;;0.83;0.40;;;;;;;11.78;86.05;94371.97;4387385;32;20210;-58
2023/04/12 10:38:01;;;;;;;0.30;0.23;;;;;;;11.59;87.05;94367.84;4390369;32;20199;-58
2023/04/12 10:40:31;;;;;;;0.70;0.70;;;;;;;11.83;86.80;94350.53;4387710;32;20198;-58
2023/04/12 10:43:21;;;;;;;0.77;0.40;;;;;;;11.66;85.97;94365.44;4388468;32;20208;-58
2023/04/12 10:45:48;;;;;;;0.10;0.10;;;;;;;11.86;85.23;94365.78;4367848;32;20235;-58
2023/04/12 10:48:32;;;;;;;0.60;0.40;;;;;;;11.78;83.46;94361.34;4390204;32;20216;-58
2023/04/12 10:51:24;;;;;;;0.30;0.30;;;;;;;11.92;84.48;94356.53;4366999;32;20296;-58
2023/04/12 10:53:51;;;;;;;0.53;0.53;;;;;;;11.92;85.50;94335.28;4372838;32;20185;-58
2023/04/12 10:56:28;;;;;;;0.37;0.37;;;;;;;12.12;83.74;94326.50;4370969;32;20255;-58
2023/04/12 10:58:55;;;;;;;0.10;0.10;;;;;;;12.23;82.32;94332.97;4388800;32;20188;-58
2023/04/12 11:01:21;;;;;;;1.07;0.63;;;;;;;12.27;82.17;94336.50;4376613;32;20247;-58
2023/04/12 11:04:13;;;;;;;0.30;0.30;;;;;;;12.31;82.01;94341.94;4375593;32;20244;-58
2023/04/12 11:06:41;;;;;;;0.37;0.37;;;;;;;12.30;81.86;94329.75;4373032;32;20193;-58
2023/04/12 11:09:16;;;;;;;0.50;0.50;;;;;;;12.36;81.04;94323.91;4386638;32;20180;-58
2023/04/12 11:11:42;;;;;;;0.37;0.37;;;;;;;12.41;80.89;94317.63;4384642;32;20187;-57
2023/04/12 11:14:13;;;;;;;0.37;0.37;;;;;;;12.39;80.87;94322.47;4376119;32;20181;-58
2023/04/12 11:17:07;;;;;;;0.40;0.40;;;;;;;12.39;81.75;94319.81;4382171;32;20269;-58
2023/04/12 11:19:32;;;;;;;0.23;0.23;;;;;;;12.52;81.79;94320.63;4380366;32;20218;-58
2023/04/12 11:22:02;;;;;;;0.40;0.40;;;;;;;12.66;81.26;94310.47;4371188;32;20204;-58
2023/04/12 11:24:28;;;;;;;0.40;0.40;;;;;;;12.61;81.22;94311.44;4388019;32;20200;-58
2023/04/12 11:26:56;;;;;;;0.50;0.50;;;;;;;12.53;80.62;94311.53;4385573;32;20193;-58
2023/04/12 11:29:25;;;;;;;0.63;0.63;;;;;;;12.58;79.79;94306.78;4373727;32;20262;-58
2023/04/12 11:31:51;;;;;;;0.47;0.47;;;;;;;12.59;80.98;94311.00;4384141;32;20237;-58
2023/04/12 11:34:17;;;;;;;0.30;0.30;;;;;;;12.63;81.62;94306.56;4372463;32;20193;-58
2023/04/12 11:36:45;;;;;;;0.10;0.10;;;;;;;12.63;82.60;94306.56;4377756;32;20187;-58
2023/04/12 11:39:11;;;;;;;0.67;0.37;;;;;;;12.53;80.60;94307.00;4386178;32;20173;-58
2023/04/12 11:41:42;;;;;;;3.00;0.37;;;;;;;12.51;80.84;94292.47;4386497;32;20187;-58